Time;durP1;ratioP1;P1;durP2;ratioP2;P2;SDS_P1;SDS_P2;PMS_P1;PMS_P2;Temp;Humidity;BMP_temperature;BMP_pressure;BME280_temperature;BME280_humidity;BME280_pressure;Samples;Min_cycle;Max_cycle;Signal;HPM_P1;HPM_P2
2021/04/19 00:00:42;;;;;;;27.00;13.40;;;;;;;8.37;88.72;96723.97;4949728;28;20917;-70
2021/04/19 00:03:10;;;;;;;23.40;12.90;;;;;;;8.37;88.37;96718.78;4946530;28;20741;-71
2021/04/19 00:05:38;;;;;;;25.20;12.83;;;;;;;8.39;88.32;96720.38;4941892;28;21095;-71
2021/04/19 00:08:07;;;;;;;26.17;14.00;;;;;;;8.32;87.95;96715.59;4941504;28;20578;-73
2021/04/19 00:10:34;;;;;;;23.77;13.77;;;;;;;8.26;88.47;96711.56;4932883;28;20917;-72
2021/04/19 00:13:02;;;;;;;26.27;12.57;;;;;;;8.32;88.08;96713.00;4942132;28;20902;-71
2021/04/19 00:15:31;;;;;;;21.67;11.80;;;;;;;8.31;88.43;96719.91;4941660;28;20442;-72
2021/04/19 00:17:58;;;;;;;22.30;12.83;;;;;;;8.32;88.57;96712.06;4938986;28;20454;-72
2021/04/19 00:20:26;;;;;;;28.03;13.53;;;;;;;8.33;88.30;96711.16;4943893;28;20549;-71
2021/04/19 00:22:53;;;;;;;25.33;12.73;;;;;;;8.38;88.22;96710.09;4949477;28;20442;-72
2021/04/19 00:25:20;;;;;;;27.00;12.83;;;;;;;8.41;87.87;96708.19;4937064;28;20470;-72
2021/04/19 00:27:50;;;;;;;23.03;12.60;;;;;;;8.38;87.82;96702.31;4945344;28;20877;-73
2021/04/19 00:30:18;;;;;;;21.63;13.30;;;;;;;8.28;88.32;96705.34;4942503;28;20458;-71
2021/04/19 00:32:45;;;;;;;25.60;14.20;;;;;;;8.31;88.67;96704.38;4926948;28;20430;-71
2021/04/19 00:35:14;;;;;;;24.40;13.00;;;;;;;8.35;88.12;96703.31;4939091;28;21024;-73
2021/04/19 00:37:42;;;;;;;23.30;12.60;;;;;;;8.30;88.31;96701.88;4936217;28;20451;-71
2021/04/19 00:40:13;;;;;;;19.87;13.00;;;;;;;8.18;88.52;96704.13;4939341;28;20473;-72
2021/04/19 00:42:40;;;;;;;33.03;14.77;;;;;;;7.89;89.54;96703.94;4941791;28;20478;-72
2021/04/19 00:45:09;;;;;;;30.23;13.07;;;;;;;7.96;90.01;96702.69;4942336;28;20474;-72
2021/04/19 00:47:37;;;;;;;22.70;12.17;;;;;;;7.94;90.21;96694.16;4947869;28;20857;-73
2021/04/19 00:50:06;;;;;;;22.10;12.63;;;;;;;8.05;89.91;96696.22;4943621;28;20993;-71
2021/04/19 00:52:34;;;;;;;25.93;14.07;;;;;;;8.05;89.24;96691.88;4942803;28;20533;-72
2021/04/19 00:55:02;;;;;;;23.50;13.07;;;;;;;8.10;88.89;96689.03;4937732;28;21166;-71
2021/04/19 00:57:33;;;;;;;32.10;13.80;;;;;;;8.13;88.77;96689.72;4948405;28;20591;-72
2021/04/19 01:00:02;;;;;;;28.70;13.60;;;;;;;8.14;88.84;96687.03;4944477;28;20950;-72
2021/04/19 01:02:29;;;;;;;26.43;14.27;;;;;;;8.21;88.55;96689.34;4942963;28;20438;-71
2021/04/19 01:04:58;;;;;;;27.60;15.30;;;;;;;8.13;88.39;96685.38;4943886;28;20789;-71
2021/04/19 01:07:25;;;;;;;22.53;12.47;;;;;;;8.07;88.68;96684.00;4940695;28;20485;-71
2021/04/19 01:09:52;;;;;;;27.03;14.53;;;;;;;8.06;88.50;96682.34;4937069;28;20820;-72
2021/04/19 01:12:20;;;;;;;27.13;13.97;;;;;;;8.03;88.62;96683.31;4938101;28;20454;-72
2021/04/19 01:14:47;;;;;;;29.47;14.47;;;;;;;8.01;88.54;96684.34;4938087;28;20473;-71
2021/04/19 01:17:14;;;;;;;25.90;14.73;;;;;;;7.96;88.88;96676.75;4939029;28;20445;-72
2021/04/19 01:19:42;;;;;;;27.80;14.70;;;;;;;8.03;88.91;96680.72;4935919;28;20495;-72
2021/04/19 01:22:09;;;;;;;26.67;13.80;;;;;;;8.05;88.44;96681.50;4929096;28;20882;-73
2021/04/19 01:24:36;;;;;;;27.47;14.77;;;;;;;8.08;88.64;96683.94;4936757;28;20521;-70
2021/04/19 01:27:05;;;;;;;29.23;15.53;;;;;;;8.04;88.48;96681.56;4940097;28;20502;-71
2021/04/19 01:29:32;;;;;;;24.27;15.13;;;;;;;7.97;88.60;96681.06;4940250;28;20818;-71
2021/04/19 01:31:59;;;;;;;25.80;12.93;;;;;;;7.98;87.91;96677.56;4925668;28;20925;-72
2021/04/19 01:34:27;;;;;;;27.60;12.80;;;;;;;7.97;88.21;96680.22;4938373;28;21229;-71
2021/04/19 01:36:54;;;;;;;25.03;13.43;;;;;;;7.97;88.29;96677.63;4946205;28;20438;-71
2021/04/19 01:39:22;;;;;;;26.08;13.80;;;;;;;7.97;88.32;96672.44;4946354;28;20985;-71
2021/04/19 01:41:50;;;;;;;24.70;13.47;;;;;;;7.92;88.30;96674.41;4936043;28;20200;-72
2021/04/19 01:44:17;;;;;;;25.80;14.90;;;;;;;7.88;88.62;96673.72;4945313;28;20462;-70
2021/04/19 01:46:44;;;;;;;24.43;12.47;;;;;;;7.91;88.57;96671.00;4940061;28;20443;-71
2021/04/19 01:49:19;;;;;;;23.90;13.90;;;;;;;7.92;88.34;96672.66;4937990;28;20466;-72
2021/04/19 01:51:48;;;;;;;30.07;14.23;;;;;;;7.99;88.26;96665.41;4944168;28;20451;-74
2021/04/19 01:54:15;;;;;;;24.37;14.10;;;;;;;7.90;88.24;96658.97;4945104;28;20842;-71
2021/04/19 01:56:43;;;;;;;38.33;14.67;;;;;;;7.98;88.05;96668.94;4936179;28;20435;-70
2021/04/19 01:59:11;;;;;;;30.17;14.63;;;;;;;8.02;88.02;96666.09;4939027;28;20470;-71
2021/04/19 02:01:45;;;;;;;26.20;13.70;;;;;;;8.04;87.72;96668.63;4936371;28;20498;-72
2021/04/19 02:04:19;;;;;;;25.55;14.50;;;;;;;8.00;87.77;96667.09;4942454;28;20774;-74
2021/04/19 02:07:00;;;;;;;23.90;13.23;;;;;;;7.95;87.82;96659.53;4930238;28;20258;-72
2021/04/19 02:09:31;;;;;;;28.87;14.27;;;;;;;7.90;87.35;96658.97;4943136;28;20777;-71
2021/04/19 02:12:07;;;;;;;22.10;12.87;;;;;;;7.93;87.64;96657.94;4947422;28;20442;-71
2021/04/19 02:14:47;;;;;;;21.97;13.37;;;;;;;7.95;87.42;96669.09;4940903;28;20478;-71
2021/04/19 02:17:25;;;;;;;22.37;12.43;;;;;;;7.87;87.60;96656.50;4941556;28;20933;-70
2021/04/19 02:20:01;;;;;;;25.30;13.13;;;;;;;7.89;88.19;96659.03;4915234;28;20462;-72
2021/04/19 02:22:35;;;;;;;22.60;12.73;;;;;;;7.91;87.88;96658.03;4946626;28;20980;-71
2021/04/19 02:25:07;;;;;;;24.67;13.80;;;;;;;7.88;88.06;96658.19;4941553;28;20465;-71
2021/04/19 02:27:39;;;;;;;26.77;15.27;;;;;;;7.88;88.18;96649.59;4941424;28;20618;-72
2021/04/19 02:30:11;;;;;;;24.57;13.30;;;;;;;7.86;88.33;96654.00;4938607;28;20462;-70
2021/04/19 02:32:43;;;;;;;29.23;14.10;;;;;;;7.75;88.39;96656.28;4941332;28;20450;-71
2021/04/19 02:35:15;;;;;;;25.10;13.20;;;;;;;7.72;88.65;96651.28;4947397;28;21036;-70
2021/04/19 02:37:43;;;;;;;28.33;15.07;;;;;;;7.70;88.59;96653.94;4949453;28;20438;-72
2021/04/19 02:40:12;;;;;;;28.30;15.70;;;;;;;7.76;89.02;96658.81;4941704;28;20459;-71
2021/04/19 02:42:42;;;;;;;26.60;13.87;;;;;;;7.78;88.85;96661.31;4947163;28;20734;-72
2021/04/19 02:45:14;;;;;;;20.40;13.33;;;;;;;7.78;88.91;96659.56;4931974;28;20463;-72
2021/04/19 02:47:43;;;;;;;22.57;14.10;;;;;;;7.72;88.86;96661.63;4948481;28;20435;-72
2021/04/19 02:50:20;;;;;;;25.00;13.17;;;;;;;7.75;88.82;96658.88;4950860;28;20470;-71
2021/04/19 02:52:48;;;;;;;21.20;13.30;;;;;;;7.72;89.02;96666.81;4926101;28;20816;-72
2021/04/19 02:55:18;;;;;;;28.47;15.40;;;;;;;7.62;88.98;96665.56;4937674;28;20475;-74
2021/04/19 02:57:50;;;;;;;24.00;14.70;;;;;;;7.62;88.95;96665.56;4953923;28;20894;-71
2021/04/19 03:00:20;;;;;;;23.83;13.23;;;;;;;7.44;89.80;96671.66;4942980;28;20482;-71
2021/04/19 03:02:52;;;;;;;23.48;13.43;;;;;;;7.27;90.38;96663.84;4942810;28;20449;-71
2021/04/19 03:05:20;;;;;;;25.00;13.20;;;;;;;7.27;91.05;96661.25;4944016;28;20595;-74
2021/04/19 03:07:51;;;;;;;26.77;14.50;;;;;;;7.35;90.96;96665.16;4944424;28;20446;-72
2021/04/19 03:10:19;;;;;;;20.87;12.40;;;;;;;7.43;91.15;96660.47;4947477;28;20790;-72
2021/04/19 03:12:51;;;;;;;28.08;14.10;;;;;;;7.52;90.39;96659.19;4945672;28;20915;-71
2021/04/19 03:15:22;;;;;;;22.23;13.90;;;;;;;7.53;90.30;96663.44;4939062;28;20231;-71
2021/04/19 03:17:51;;;;;;;21.90;13.70;;;;;;;7.56;90.10;96655.50;4949905;28;20439;-71
2021/04/19 03:20:22;;;;;;;24.23;13.80;;;;;;;7.56;89.92;96655.50;4942558;28;20475;-71
2021/04/19 03:22:51;;;;;;;23.93;13.30;;;;;;;7.57;90.30;96652.03;4943477;28;20627;-72
2021/04/19 03:25:20;;;;;;;27.08;14.80;;;;;;;7.68;89.65;96649.75;4939904;28;20463;-71
2021/04/19 03:27:50;;;;;;;25.30;15.10;;;;;;;7.69;89.56;96646.22;4942289;28;20210;-71
2021/04/19 03:30:18;;;;;;;28.67;15.40;;;;;;;7.64;89.75;96654.22;4936927;28;20474;-72
2021/04/19 03:32:48;;;;;;;24.37;13.47;;;;;;;7.63;89.70;96651.72;4946792;28;20835;-71
2021/04/19 03:35:20;;;;;;;26.40;13.60;;;;;;;7.65;89.95;96647.31;4939908;28;20984;-71
2021/04/19 03:37:49;;;;;;;24.57;14.40;;;;;;;7.67;89.59;96653.25;4947403;28;20466;-71
2021/04/19 03:40:22;;;;;;;31.40;14.83;;;;;;;7.67;89.71;96653.25;4941108;28;21064;-71
2021/04/19 03:42:54;;;;;;;31.70;15.00;;;;;;;7.58;89.91;96645.94;4942244;28;20438;-72
2021/04/19 03:45:22;;;;;;;25.80;14.37;;;;;;;7.62;90.33;96645.72;4941915;28;20975;-72
2021/04/19 03:47:51;;;;;;;23.50;12.30;;;;;;;7.67;89.87;96646.31;4942333;28;20450;-71
2021/04/19 03:50:25;;;;;;;26.50;15.73;;;;;;;7.57;90.13;96620.97;4940268;28;20939;-71
2021/04/19 03:52:53;;;;;;;27.60;14.55;;;;;;;7.65;90.72;96640.34;4942659;28;20791;-70
2021/04/19 03:55:21;;;;;;;26.07;14.50;;;;;;;7.65;90.53;96631.78;4937377;28;20237;-71
2021/04/19 03:57:50;;;;;;;27.50;15.80;;;;;;;7.64;90.35;96624.91;4940196;28;20446;-74
2021/04/19 04:00:21;;;;;;;26.93;14.27;;;;;;;7.70;90.38;96640.13;4940722;28;20497;-72
2021/04/19 04:02:52;;;;;;;31.97;15.00;;;;;;;7.64;90.74;96632.69;4937637;28;21095;-71
2021/04/19 04:05:21;;;;;;;25.23;13.97;;;;;;;7.67;91.26;96635.13;4930724;28;20546;-73
2021/04/19 04:07:49;;;;;;;27.93;16.70;;;;;;;7.68;91.13;96639.38;4944481;28;20458;-70
2021/04/19 04:10:18;;;;;;;30.40;15.93;;;;;;;7.58;91.23;96633.81;4937606;28;20547;-71
2021/04/19 04:12:46;;;;;;;27.30;14.93;;;;;;;7.60;91.46;96629.41;4947568;28;20450;-71
2021/04/19 04:15:14;;;;;;;23.30;14.17;;;;;;;7.59;91.73;96632.06;4935888;28;20974;-70
2021/04/19 04:17:44;;;;;;;26.17;15.00;;;;;;;7.65;91.11;96632.59;4947415;28;20439;-71
2021/04/19 04:20:12;;;;;;;29.27;15.60;;;;;;;7.64;91.33;96633.50;4949994;28;20774;-71
2021/04/19 04:22:40;;;;;;;29.63;15.83;;;;;;;7.69;91.49;96635.88;4938527;28;21173;-71
2021/04/19 04:25:09;;;;;;;28.33;16.17;;;;;;;7.71;91.75;96646.97;4949081;28;20455;-71
2021/04/19 04:27:37;;;;;;;33.50;16.20;;;;;;;7.67;91.36;96633.38;4943779;28;20190;-73
2021/04/19 04:30:06;;;;;;;28.10;15.13;;;;;;;7.69;91.65;96641.91;4946041;28;20897;-71
2021/04/19 04:32:33;;;;;;;29.93;15.97;;;;;;;7.72;91.46;96646.91;4946397;28;20442;-71
2021/04/19 04:35:01;;;;;;;27.30;14.00;;;;;;;7.73;91.28;96642.59;4947540;28;20861;-71
2021/04/19 04:37:28;;;;;;;27.13;15.57;;;;;;;7.67;91.50;96643.75;4946650;28;20941;-72
2021/04/19 04:40:01;;;;;;;29.20;15.20;;;;;;;7.53;91.84;96614.25;4941664;28;20490;-71
2021/04/19 04:42:30;;;;;;;32.90;17.60;;;;;;;7.65;91.84;96640.34;4943792;28;21032;-71
2021/04/19 04:44:57;;;;;;;30.97;17.07;;;;;;;7.67;91.82;96637.69;4941878;28;21206;-72
2021/04/19 04:47:31;;;;;;;26.00;15.57;;;;;;;7.71;91.85;96639.22;4941741;28;20819;-72
2021/04/19 04:50:09;;;;;;;26.77;15.60;;;;;;;7.72;91.65;96630.56;4940716;28;20971;-70
2021/04/19 04:52:42;;;;;;;33.00;16.40;;;;;;;7.72;91.27;96636.56;4939254;28;20481;-71
2021/04/19 04:55:14;;;;;;;29.10;17.90;;;;;;;7.77;91.09;96639.75;4917355;28;20490;-70
2021/04/19 04:57:46;;;;;;;32.13;16.60;;;;;;;7.76;91.00;96639.81;4936218;28;20885;-70
2021/04/19 05:00:15;;;;;;;29.97;15.73;;;;;;;7.84;90.93;96645.47;4941171;28;20781;-72
2021/04/19 05:02:45;;;;;;;26.67;15.50;;;;;;;7.85;91.17;96641.94;4939669;28;20454;-73
2021/04/19 05:05:14;;;;;;;28.83;14.63;;;;;;;7.82;91.71;96642.97;4941495;28;20778;-71
2021/04/19 05:07:43;;;;;;;30.10;15.63;;;;;;;7.77;91.97;96650.13;4942469;28;20435;-71
2021/04/19 05:10:10;;;;;;;28.87;16.13;;;;;;;7.82;91.92;96642.13;4941802;28;20474;-71
2021/04/19 05:12:38;;;;;;;36.03;18.00;;;;;;;7.87;91.72;96646.13;4938386;28;20932;-72
2021/04/19 05:15:09;;;;;;;26.97;15.83;;;;;;;7.88;91.76;96650.41;4934231;28;20957;-71
2021/04/19 05:17:36;;;;;;;33.53;16.75;;;;;;;7.79;92.28;96634.50;4940276;28;20442;-71
2021/04/19 05:20:06;;;;;;;30.87;16.67;;;;;;;7.83;92.96;96651.56;4938675;28;20231;-71
2021/04/19 05:22:35;;;;;;;34.93;16.63;;;;;;;7.86;93.15;96651.41;4937080;28;20461;-71
2021/04/19 05:25:02;;;;;;;31.10;17.37;;;;;;;7.88;93.07;96649.59;4939587;28;20927;-71
2021/04/19 05:27:29;;;;;;;29.30;17.03;;;;;;;7.79;93.54;96650.88;4936325;28;20461;-71
2021/04/19 05:29:57;;;;;;;28.37;14.90;;;;;;;7.80;93.85;96659.50;4936305;28;20473;-71
2021/04/19 05:32:24;;;;;;;33.07;17.40;;;;;;;7.78;94.04;96645.75;4935999;28;20477;-71
2021/04/19 05:34:51;;;;;;;59.47;26.67;;;;;;;7.81;93.33;96650.81;4935318;28;20957;-71
2021/04/19 05:37:19;;;;;;;36.50;20.90;;;;;;;7.71;93.49;96650.44;4941089;28;20782;-70
2021/04/19 05:39:47;;;;;;;30.80;16.37;;;;;;;7.73;93.44;96653.75;4940750;28;20473;-72
2021/04/19 05:42:15;;;;;;;30.23;15.53;;;;;;;7.57;94.20;96654.63;4933045;28;20913;-72
2021/04/19 05:44:43;;;;;;;25.38;15.73;;;;;;;7.61;93.70;96653.53;4939895;28;20485;-70
2021/04/19 05:47:12;;;;;;;30.52;16.75;;;;;;;7.56;94.00;96650.34;4945887;28;20645;-70
2021/04/19 05:49:42;;;;;;;34.17;17.43;;;;;;;7.59;94.79;96660.56;4953565;28;20270;-71
2021/04/19 05:52:12;;;;;;;34.53;18.40;;;;;;;7.62;94.95;96666.44;4947379;28;20434;-71
2021/04/19 05:54:41;;;;;;;30.10;17.30;;;;;;;7.74;94.52;96663.22;4950424;28;21197;-71
2021/04/19 05:57:20;;;;;;;37.13;19.33;;;;;;;7.72;93.57;96662.47;4940027;28;20761;-70
2021/04/19 06:00:00;;;;;;;40.70;19.53;;;;;;;7.76;93.77;96658.81;4937069;28;20838;-72
2021/04/19 06:02:37;;;;;;;33.00;18.50;;;;;;;7.75;94.07;96667.50;4948367;28;20888;-71
2021/04/19 06:05:09;;;;;;;37.80;18.50;;;;;;;7.75;94.43;96666.66;4942514;28;20790;-70
2021/04/19 06:07:43;;;;;;;35.80;17.80;;;;;;;7.75;94.25;96664.06;4944409;28;20454;-71
2021/04/19 06:10:14;;;;;;;44.07;19.47;;;;;;;7.65;94.84;96668.03;4943667;28;20464;-71
2021/04/19 06:12:48;;;;;;;33.50;17.87;;;;;;;7.52;94.91;96665.19;4951309;28;20446;-71
2021/04/19 06:15:17;;;;;;;35.55;17.55;;;;;;;7.40;95.62;96672.72;4949356;28;20492;-70
2021/04/19 06:17:47;;;;;;;33.80;18.70;;;;;;;7.26;96.52;96672.53;4943784;28;20539;-70
2021/04/19 06:20:17;;;;;;;41.00;21.27;;;;;;;7.32;97.31;96677.44;4943179;28;20470;-71
2021/04/19 06:22:48;;;;;;;34.53;20.67;;;;;;;7.35;97.39;96661.75;4943501;28;20446;-70
2021/04/19 06:25:16;;;;;;;315.10;150.57;;;;;;;7.45;97.12;96673.34;4939443;28;20618;-70
2021/04/19 06:27:44;;;;;;;71.33;35.13;;;;;;;7.57;97.03;96672.75;4949625;28;20431;-70
2021/04/19 06:30:13;;;;;;;43.63;21.13;;;;;;;7.63;96.93;96680.19;4950570;28;20485;-71
2021/04/19 06:32:43;;;;;;;33.65;19.27;;;;;;;7.62;95.94;96676.78;4945490;28;20450;-72
2021/04/19 06:35:12;;;;;;;38.38;20.63;;;;;;;7.67;95.53;96684.34;4944535;28;20813;-72
2021/04/19 06:37:41;;;;;;;38.05;19.90;;;;;;;7.75;95.36;96677.88;4945608;28;20650;-72
2021/04/19 06:40:09;;;;;;;38.50;19.67;;;;;;;7.72;94.63;96678.00;4954390;28;20211;-72
2021/04/19 06:42:36;;;;;;;37.50;19.23;;;;;;;7.68;94.82;96680.81;4940473;28;20627;-71
2021/04/19 06:45:06;;;;;;;30.27;17.27;;;;;;;7.64;94.32;96681.91;4949818;28;20470;-72
2021/04/19 06:47:35;;;;;;;35.80;19.10;;;;;;;7.48;95.21;96665.41;4940169;28;20453;-72
2021/04/19 06:50:07;;;;;;;33.67;18.70;;;;;;;7.59;95.08;96676.09;4945501;28;20798;-70
2021/04/19 06:52:33;;;;;;;32.83;19.45;;;;;;;7.56;94.46;96679.66;4949930;28;20467;-71
2021/04/19 06:55:01;;;;;;;39.33;18.63;;;;;;;7.34;95.34;96670.41;4944279;28;20226;-71
2021/04/19 06:57:34;;;;;;;36.60;20.00;;;;;;;7.19;96.18;96677.19;4939361;28;20250;-71
2021/04/19 07:00:05;;;;;;;38.67;21.58;;;;;;;7.33;97.15;96679.09;4939307;28;20282;-71
2021/04/19 07:02:40;;;;;;;37.08;18.17;;;;;;;7.49;96.68;96682.63;4947598;28;20630;-71
2021/04/19 07:05:09;;;;;;;45.42;20.55;;;;;;;7.44;97.37;96677.66;4937042;28;20545;-71
2021/04/19 07:07:45;;;;;;;42.70;20.00;;;;;;;7.29;98.22;96672.41;4940512;28;20627;-70
2021/04/19 07:10:14;;;;;;;34.28;17.63;;;;;;;7.27;98.27;96685.41;4941386;28;20949;-73
2021/04/19 07:12:44;;;;;;;34.22;17.95;;;;;;;7.14;97.43;96683.50;4939804;28;20625;-71
2021/04/19 07:15:15;;;;;;;34.53;17.95;;;;;;;6.93;98.78;96674.97;4938577;28;20681;-70
2021/04/19 07:17:48;;;;;;;37.63;17.90;;;;;;;6.91;98.82;96681.16;4921205;28;20201;-70
2021/04/19 07:20:17;;;;;;;35.95;17.95;;;;;;;6.93;98.84;96676.72;4944580;28;20670;-71
2021/04/19 07:22:45;;;;;;;39.40;18.20;;;;;;;7.00;99.58;96675.53;4945041;28;20486;-71
2021/04/19 07:25:12;;;;;;;39.42;18.88;;;;;;;6.99;99.72;96679.03;4944963;28;20717;-71
2021/04/19 07:27:40;;;;;;;34.80;17.53;;;;;;;7.05;99.85;96678.72;4938276;28;20191;-72
2021/04/19 07:30:09;;;;;;;32.17;17.52;;;;;;;7.22;99.50;96681.38;4944129;28;20806;-71
2021/04/19 07:32:39;;;;;;;37.58;18.70;;;;;;;7.22;99.17;96679.59;4939354;28;20198;-70
2021/04/19 07:35:09;;;;;;;41.10;20.40;;;;;;;7.27;98.91;96669.88;4920610;28;20267;-70
2021/04/19 07:37:37;;;;;;;42.30;19.38;;;;;;;7.51;98.97;96673.88;4935598;28;20977;-74
2021/04/19 07:40:06;;;;;;;34.17;18.75;;;;;;;7.68;98.67;96678.22;4942485;28;20265;-70
2021/04/19 07:42:37;;;;;;;37.90;19.13;;;;;;;7.87;98.50;96672.06;4944646;28;20261;-72
2021/04/19 07:45:05;;;;;;;40.67;20.48;;;;;;;8.04;97.95;96673.81;4936977;28;20678;-71
2021/04/19 07:47:35;;;;;;;30.53;16.73;;;;;;;8.02;97.02;96671.28;4951062;28;20191;-71
2021/04/19 07:50:14;;;;;;;35.53;18.80;;;;;;;8.01;96.25;96673.97;4949594;28;20482;-71
2021/04/19 07:52:59;;;;;;;34.90;18.60;;;;;;;7.99;95.81;96673.19;4945863;28;20949;-71
2021/04/19 07:55:29;;;;;;;36.03;17.77;;;;;;;7.92;96.29;96674.41;4938592;28;20478;-71
2021/04/19 07:58:04;;;;;;;38.70;17.77;;;;;;;7.98;96.53;96677.56;4941995;28;20893;-72
2021/04/19 08:00:33;;;;;;;38.97;19.03;;;;;;;8.17;96.09;96677.44;4948116;28;20540;-71
2021/04/19 08:03:05;;;;;;;31.70;16.87;;;;;;;8.12;95.92;96676.84;4944187;28;20442;-71
2021/04/19 08:05:40;;;;;;;34.67;17.40;;;;;;;7.84;95.23;96655.81;4925634;28;20832;-74
2021/04/19 08:08:08;;;;;;;36.53;17.58;;;;;;;7.88;95.98;96667.72;4951677;28;20430;-71
2021/04/19 08:10:38;;;;;;;31.50;17.60;;;;;;;7.91;96.07;96681.38;4944011;28;20258;-71
2021/04/19 08:13:13;;;;;;;34.53;17.63;;;;;;;8.00;95.95;96687.81;4939737;28;20848;-72
2021/04/19 08:15:43;;;;;;;31.70;18.20;;;;;;;7.62;96.94;96650.03;4940337;28;20691;-71
2021/04/19 08:18:13;;;;;;;32.47;18.40;;;;;;;7.70;97.77;96676.38;4925184;28;20455;-71
2021/04/19 08:20:49;;;;;;;34.73;18.40;;;;;;;7.80;97.70;96686.22;4941144;28;20438;-72
2021/04/19 08:23:17;;;;;;;39.27;18.63;;;;;;;7.89;97.50;96678.03;4935092;28;20499;-71
2021/04/19 08:25:46;;;;;;;33.20;17.30;;;;;;;8.02;97.21;96691.19;4947012;28;21182;-71
2021/04/19 08:28:15;;;;;;;38.30;18.83;;;;;;;7.97;97.01;96680.22;4936388;28;20898;-71
2021/04/19 08:30:44;;;;;;;34.07;18.50;;;;;;;8.03;97.14;96687.69;4946565;28;20485;-72
2021/04/19 08:33:11;;;;;;;31.63;17.50;;;;;;;8.01;97.42;96686.94;4923653;28;20473;-73
2021/04/19 08:35:40;;;;;;;40.23;19.30;;;;;;;8.03;97.53;96674.72;4935889;28;20565;-71
2021/04/19 08:38:10;;;;;;;35.80;18.73;;;;;;;8.07;97.00;96668.44;4939451;28;20442;-72
2021/04/19 08:40:38;;;;;;;33.57;16.93;;;;;;;7.97;97.97;96681.06;4936293;28;20783;-71
2021/04/19 08:43:08;;;;;;;31.33;17.80;;;;;;;7.91;98.90;96675.31;4934849;28;20913;-72
2021/04/19 08:45:39;;;;;;;42.23;20.10;;;;;;;7.87;99.42;96685.00;4924730;28;20482;-72
2021/04/19 08:48:09;;;;;;;38.63;17.57;;;;;;;7.90;99.46;96671.91;4937711;28;20742;-71
2021/04/19 08:50:36;;;;;;;31.60;17.03;;;;;;;7.99;99.21;96684.41;4944283;28;20773;-72
2021/04/19 08:53:07;;;;;;;33.27;19.10;;;;;;;7.99;99.17;96686.16;4929500;28;20450;-72
2021/04/19 08:55:35;;;;;;;31.77;18.40;;;;;;;7.89;99.37;96682.34;4940245;28;20469;-71
2021/04/19 08:58:09;;;;;;;38.33;19.53;;;;;;;7.95;99.14;96684.63;4944155;28;20447;-72
2021/04/19 09:00:38;;;;;;;34.83;18.27;;;;;;;7.92;98.50;96685.63;4943183;28;20754;-72
2021/04/19 09:03:06;;;;;;;43.83;23.20;;;;;;;7.83;99.04;96691.28;4944539;28;20758;-72
2021/04/19 09:05:33;;;;;;;34.30;19.47;;;;;;;7.94;99.09;96694.16;4945804;28;20442;-72
2021/04/19 09:08:06;;;;;;;38.43;21.20;;;;;;;7.85;99.74;96697.22;4938701;28;20442;-72
2021/04/19 09:10:55;;;;;;;41.27;19.23;;;;;;;7.94;99.64;96688.16;4937445;28;21277;-72
2021/04/19 09:13:31;;;;;;;31.48;18.58;;;;;;;7.94;99.54;96693.34;4938630;28;20458;-72
2021/04/19 09:16:17;;;;;;;35.00;18.50;;;;;;;7.88;99.91;96680.69;4932884;28;20228;-71
2021/04/19 09:18:47;;;;;;;32.37;17.77;;;;;;;8.01;100.00;96692.09;4928710;28;20842;-72
2021/04/19 09:21:49;;;;;;;38.03;21.13;;;;;;;8.07;100.00;96691.78;4951690;28;20438;-72
2021/04/19 09:24:18;;;;;;;35.10;18.70;;;;;;;8.16;98.67;96693.94;4878172;29;20473;-71
2021/04/19 09:26:52;;;;;;;37.43;19.17;;;;;;;8.23;98.16;96695.31;4886329;29;20201;-71
2021/04/19 09:29:46;;;;;;;62.30;31.97;;;;;;;8.25;98.04;96696.91;4876004;29;20763;-72
2021/04/19 09:32:25;;;;;;;42.03;21.80;;;;;;;8.25;98.21;96698.66;4882586;29;21001;-71
2021/04/19 09:35:02;;;;;;;40.80;19.60;;;;;;;8.24;97.69;96700.41;4875477;29;20779;-73
2021/04/19 09:37:57;;;;;;;33.23;18.60;;;;;;;8.23;97.90;96703.91;4891720;29;20212;-72
2021/04/19 09:40:24;;;;;;;35.55;20.80;;;;;;;8.02;99.69;96693.78;4887990;29;20474;-71
2021/04/19 09:43:09;;;;;;;45.87;23.87;;;;;;;8.05;100.00;96711.75;4884391;29;20590;-72
2021/04/19 09:45:54;;;;;;;40.40;21.40;;;;;;;8.00;100.00;96705.97;4888734;29;20441;-74
2021/04/19 09:48:43;;;;;;;36.20;19.47;;;;;;;7.96;100.00;96701.84;4888575;29;20480;-72
2021/04/19 09:51:15;;;;;;;42.13;21.75;;;;;;;7.94;100.00;96694.16;4876776;29;20446;-72
2021/04/19 09:53:47;;;;;;;43.97;21.87;;;;;;;8.02;100.00;96709.34;4883030;29;20237;-73
2021/04/19 09:56:14;;;;;;;52.58;25.13;;;;;;;8.01;100.00;96700.72;4936436;28;20505;-72
2021/04/19 09:58:42;;;;;;;64.00;33.30;;;;;;;8.05;100.00;96702.25;4947372;28;20736;-73
2021/04/19 10:01:09;;;;;;;46.60;25.97;;;;;;;8.11;100.00;96707.13;4956338;28;21131;-73
2021/04/19 10:03:37;;;;;;;46.00;22.67;;;;;;;8.20;100.00;96705.84;4951697;28;21053;-73
2021/04/19 10:06:08;;;;;;;45.30;22.03;;;;;;;8.30;100.00;96707.06;4956430;28;20478;-72
2021/04/19 10:08:41;;;;;;;46.03;22.13;;;;;;;8.27;100.00;96702.88;4943325;28;21031;-74
2021/04/19 10:11:10;;;;;;;41.07;22.20;;;;;;;8.31;100.00;96704.38;4959941;28;20426;-74
2021/04/19 10:13:37;;;;;;;37.13;20.50;;;;;;;8.32;100.00;96700.03;4939118;28;20553;-72
2021/04/19 10:16:09;;;;;;;41.47;23.30;;;;;;;8.23;100.00;96705.69;4948292;28;20773;-72
2021/04/19 10:18:37;;;;;;;31.70;20.87;;;;;;;8.25;100.00;96698.66;4947206;28;20488;-73
2021/04/19 10:21:07;;;;;;;43.60;23.30;;;;;;;8.14;100.00;96710.38;4935837;28;20497;-74
2021/04/19 10:23:39;;;;;;;37.90;22.43;;;;;;;8.21;100.00;96702.31;4943616;28;20458;-73
2021/04/19 10:26:11;;;;;;;42.90;22.40;;;;;;;8.13;100.00;96703.50;4945415;28;20772;-73
2021/04/19 10:28:43;;;;;;;43.97;23.50;;;;;;;8.20;100.00;96701.50;4973058;28;20492;-73
2021/04/19 10:31:14;;;;;;;48.77;23.83;;;;;;;8.18;100.00;96706.72;4964796;28;20549;-73
2021/04/19 10:33:44;;;;;;;44.67;23.30;;;;;;;8.27;100.00;96710.63;4956045;28;20582;-73
2021/04/19 10:36:15;;;;;;;39.53;21.70;;;;;;;8.32;100.00;96706.03;4961543;28;20525;-73
2021/04/19 10:38:44;;;;;;;40.00;21.17;;;;;;;8.21;100.00;96699.72;4946799;28;20462;-73
2021/04/19 10:41:11;;;;;;;40.65;21.10;;;;;;;8.11;100.00;96699.34;4950585;28;20446;-73
2021/04/19 10:43:39;;;;;;;39.60;21.20;;;;;;;7.98;100.00;96695.69;4943836;28;20219;-73
2021/04/19 10:46:25;;;;;;;37.80;20.80;;;;;;;7.90;100.00;96702.16;4949636;28;20478;-74
2021/04/19 10:48:55;;;;;;;39.07;22.27;;;;;;;7.98;100.00;96694.84;4952068;28;20874;-75
2021/04/19 10:51:27;;;;;;;40.10;22.93;;;;;;;7.99;100.00;96691.31;4951494;28;21250;-74
2021/04/19 10:53:55;;;;;;;40.00;22.13;;;;;;;8.14;100.00;96688.81;4958934;28;20861;-74
2021/04/19 10:56:24;;;;;;;40.23;20.80;;;;;;;8.16;100.00;96688.75;4947024;28;20730;-74
2021/04/19 10:59:05;;;;;;;45.07;22.60;;;;;;;8.07;100.00;96689.19;4938277;28;20800;-74
2021/04/19 11:01:34;;;;;;;48.50;24.27;;;;;;;7.99;100.00;96686.16;4952319;28;20478;-75
2021/04/19 11:04:03;;;;;;;47.70;25.93;;;;;;;8.01;100.00;96689.53;4949109;28;20511;-73
2021/04/19 11:06:34;;;;;;;44.53;22.20;;;;;;;8.10;100.00;96689.03;4952138;28;20466;-74
2021/04/19 11:09:04;;;;;;;45.50;24.40;;;;;;;8.05;100.00;96686.69;4950515;28;21042;-74
2021/04/19 11:11:40;;;;;;;41.60;21.50;;;;;;;8.00;100.00;96686.06;4945291;28;20245;-75
2021/04/19 11:14:13;;;;;;;48.87;23.70;;;;;;;7.97;100.00;96688.84;4942998;28;20781;-75
2021/04/19 11:16:56;;;;;;;42.30;22.93;;;;;;;8.02;100.00;96686.00;4926488;28;20466;-74
2021/04/19 11:19:36;;;;;;;37.23;21.03;;;;;;;7.95;100.00;96687.22;4942007;28;20522;-75
2021/04/19 11:22:24;;;;;;;40.70;20.27;;;;;;;7.76;100.00;96694.22;4943329;28;20964;-73
2021/04/19 11:25:13;;;;;;;40.87;20.87;;;;;;;7.56;100.00;96690.03;4943393;28;20728;-75
2021/04/19 11:27:40;;;;;;;39.90;21.70;;;;;;;7.59;100.00;96686.47;4937869;28;20446;-74
2021/04/19 11:30:27;;;;;;;41.37;20.83;;;;;;;7.69;100.00;96692.84;4939125;28;20513;-74
2021/04/19 11:33:07;;;;;;;42.43;22.30;;;;;;;7.73;100.00;96691.81;4946079;28;20493;-75
2021/04/19 11:35:37;;;;;;;107.73;57.33;;;;;;;7.77;100.00;96685.53;4943270;28;20697;-74
2021/04/19 11:38:07;;;;;;;44.25;21.38;;;;;;;7.85;100.00;96683.41;4942566;28;20533;-74
2021/04/19 11:40:36;;;;;;;35.53;19.47;;;;;;;7.82;100.00;96694.78;4953499;28;20198;-73